Time;durP1;ratioP1;P1;durP2;ratioP2;P2;SDS_P1;SDS_P2;PMS_P1;PMS_P2;Temp;Humidity;BMP_temperature;BMP_pressure;BME280_temperature;BME280_humidity;BME280_pressure;Samples;Min_cycle;Max_cycle;Signal;HPM_P1;HPM_P2
2021/09/05 00:01:04;;;;;;;12.07;10.85;;;;;;;18.85;52.58;95544.63;5014379;28;20036;-69
2021/09/05 00:03:30;;;;;;;12.98;10.73;;;;;;;18.43;52.44;95496.56;5011780;28;20458;-69
2021/09/05 00:05:55;;;;;;;14.75;12.35;;;;;;;18.30;52.09;95471.59;5012096;28;20032;-69
2021/09/05 00:08:21;;;;;;;11.73;10.68;;;;;;;18.22;52.36;95466.38;5011672;28;20049;-70
2021/09/05 00:10:46;;;;;;;13.57;12.05;;;;;;;18.11;52.53;95452.63;5011598;28;20401;-69
2021/09/05 00:13:11;;;;;;;11.70;10.60;;;;;;;18.44;52.36;95517.78;4996552;28;20064;-69
2021/09/05 00:15:37;;;;;;;11.85;10.80;;;;;;;18.17;52.79;95488.97;5011769;28;20077;-69
2021/09/05 00:18:02;;;;;;;10.63;9.43;;;;;;;18.51;52.33;95541.41;4993993;28;20391;-69
2021/09/05 00:20:28;;;;;;;9.27;8.48;;;;;;;18.13;52.37;95496.94;5011165;28;20046;-69
2021/09/05 00:22:53;;;;;;;11.07;9.45;;;;;;;18.42;52.51;95524.63;5011701;28;20108;-69
2021/09/05 00:25:18;;;;;;;9.93;8.95;;;;;;;18.56;52.31;95553.84;5013877;28;20029;-69
2021/09/05 00:27:44;;;;;;;11.25;10.20;;;;;;;18.31;52.00;95521.63;5011732;28;20445;-69
2021/09/05 00:30:10;;;;;;;11.73;10.07;;;;;;;18.05;52.32;95491.69;5011157;28;20262;-69
2021/09/05 00:32:35;;;;;;;9.65;8.75;;;;;;;17.95;52.13;95471.44;5011714;28;20037;-69
2021/09/05 00:35:00;;;;;;;10.68;9.50;;;;;;;18.38;52.12;95551.47;5009478;28;20042;-69
2021/09/05 00:37:26;;;;;;;11.20;10.00;;;;;;;18.01;52.36;95506.94;5013692;28;20152;-71
2021/09/05 00:39:51;;;;;;;9.32;8.18;;;;;;;17.65;54.21;95547.03;5010380;28;20104;-69
2021/09/05 00:42:24;;;;;;;9.48;8.60;;;;;;;17.56;52.95;95479.16;5010781;28;20038;-70
2021/09/05 00:44:50;;;;;;;10.55;9.55;;;;;;;17.63;52.88;95479.34;5011853;28;20049;-70
2021/09/05 00:47:15;;;;;;;9.32;8.52;;;;;;;17.62;52.59;95482.38;4994044;28;20050;-69
2021/09/05 00:49:40;;;;;;;9.80;8.85;;;;;;;17.65;52.83;95501.31;5008800;28;20108;-70
2021/09/05 00:52:06;;;;;;;8.55;7.80;;;;;;;17.83;52.80;95526.09;5013176;28;20135;-70
2021/09/05 00:54:32;;;;;;;9.32;8.52;;;;;;;17.42;53.26;95486.78;5010904;28;20100;-69
2021/09/05 00:56:57;;;;;;;9.15;8.25;;;;;;;17.99;53.21;95576.50;5011541;28;20034;-70
2021/09/05 00:59:23;;;;;;;9.48;8.55;;;;;;;17.53;53.00;95490.59;5011173;28;20128;-69
2021/09/05 01:01:49;;;;;;;12.45;9.15;;;;;;;18.07;53.16;95565.63;5010822;28;20529;-70
2021/09/05 01:04:15;;;;;;;10.90;9.38;;;;;;;17.25;53.53;95481.66;5012581;28;20052;-69
2021/09/05 01:06:41;;;;;;;9.70;8.70;;;;;;;17.95;53.35;95554.06;5011023;28;20082;-69
2021/09/05 01:09:07;;;;;;;9.40;8.35;;;;;;;17.84;53.11;95535.72;5007786;28;20056;-69
2021/09/05 01:11:33;;;;;;;10.77;9.48;;;;;;;17.45;53.04;95469.19;5010544;28;20443;-68
2021/09/05 01:14:00;;;;;;;10.52;9.50;;;;;;;17.51;53.11;95482.06;4993277;28;20104;-69
2021/09/05 01:16:30;;;;;;;10.70;9.23;;;;;;;18.11;53.18;95561.09;5012775;28;20513;-69
2021/09/05 01:19:14;;;;;;;10.55;9.55;;;;;;;17.64;53.02;95502.44;5009727;28;20030;-70
2021/09/05 01:21:42;;;;;;;11.90;10.80;;;;;;;17.81;54.02;95554.44;5010479;28;20408;-69
2021/09/05 01:24:09;;;;;;;10.60;9.65;;;;;;;18.00;54.04;95553.84;5010157;28;20034;-69
2021/09/05 01:26:36;;;;;;;11.90;10.57;;;;;;;17.80;53.75;95520.59;5010362;28;20108;-69
2021/09/05 01:29:04;;;;;;;15.93;10.40;;;;;;;17.80;53.57;95515.97;5009582;28;20139;-69
2021/09/05 01:31:55;;;;;;;12.25;11.00;;;;;;;18.08;53.63;95553.72;5012730;28;20087;-69
2021/09/05 01:34:23;;;;;;;12.55;11.27;;;;;;;18.07;53.81;95562.91;5006114;28;20042;-69
2021/09/05 01:36:50;;;;;;;14.70;13.20;;;;;;;17.84;53.69;95521.47;5010163;28;20128;-70
2021/09/05 01:39:17;;;;;;;12.77;11.48;;;;;;;17.53;53.80;95474.44;5009772;28;20124;-69
2021/09/05 01:41:44;;;;;;;12.32;11.13;;;;;;;18.18;53.75;95588.22;5010184;28;20056;-69
2021/09/05 01:44:12;;;;;;;14.32;11.45;;;;;;;18.16;53.64;95560.84;5009850;28;20033;-69
2021/09/05 01:46:38;;;;;;;12.48;11.23;;;;;;;18.21;53.57;95572.50;4991819;28;20376;-69
2021/09/05 01:49:05;;;;;;;13.90;11.43;;;;;;;18.09;53.20;95563.34;5011104;28;20022;-70
2021/09/05 01:51:30;;;;;;;12.00;10.85;;;;;;;18.13;53.13;95564.25;5009742;28;20030;-69
2021/09/05 01:53:57;;;;;;;14.10;12.77;;;;;;;17.99;53.15;95557.66;5009686;28;20034;-69
2021/09/05 01:56:23;;;;;;;11.43;10.35;;;;;;;17.98;53.07;95550.72;5010012;28;20042;-69
2021/09/05 01:58:49;;;;;;;14.88;11.65;;;;;;;17.96;53.49;95561.81;5009471;28;20029;-69
2021/09/05 02:01:14;;;;;;;15.18;11.73;;;;;;;18.02;53.25;95571.22;4994744;28;20575;-69
2021/09/05 02:03:40;;;;;;;12.85;11.55;;;;;;;17.56;53.30;95500.69;5009754;28;20072;-69
2021/09/05 02:06:05;;;;;;;16.10;12.68;;;;;;;17.66;53.67;95548.63;4991990;28;20072;-69
2021/09/05 02:08:31;;;;;;;15.50;13.48;;;;;;;17.73;53.42;95552.69;5009508;28;20038;-70
2021/09/05 02:10:57;;;;;;;13.85;12.48;;;;;;;17.87;53.41;95585.41;5009442;28;20061;-72
2021/09/05 02:13:22;;;;;;;14.82;12.60;;;;;;;17.15;53.12;95482.91;5011800;28;20463;-69
2021/09/05 02:15:47;;;;;;;17.15;13.55;;;;;;;17.36;53.25;95528.50;5009734;28;20081;-70
2021/09/05 02:18:13;;;;;;;13.00;11.65;;;;;;;17.25;53.25;95517.41;5009173;28;20084;-69
2021/09/05 02:20:38;;;;;;;16.50;12.38;;;;;;;17.68;53.46;95589.41;5007929;28;20539;-69
2021/09/05 02:23:03;;;;;;;13.05;11.38;;;;;;;17.70;53.67;95599.81;5009237;28;20037;-70
2021/09/05 02:25:29;;;;;;;14.43;12.57;;;;;;;17.42;53.28;95554.03;5011739;28;20022;-69
2021/09/05 02:27:54;;;;;;;13.95;12.63;;;;;;;17.67;53.31;95595.91;5009427;28;20069;-69
2021/09/05 02:30:20;;;;;;;14.90;13.35;;;;;;;17.03;53.56;95510.56;5008696;28;20073;-70
2021/09/05 02:32:45;;;;;;;16.60;13.73;;;;;;;17.05;53.50;95516.41;5009383;28;20483;-69
2021/09/05 02:35:10;;;;;;;15.70;13.48;;;;;;;17.03;53.24;95520.53;5008621;28;20376;-69
2021/09/05 02:37:38;;;;;;;13.07;11.73;;;;;;;17.29;53.40;95549.75;4991766;28;20377;-70
2021/09/05 02:40:05;;;;;;;15.38;12.13;;;;;;;17.54;53.55;95598.94;5011257;28;20072;-69
2021/09/05 02:42:33;;;;;;;17.05;13.77;;;;;;;17.13;53.34;95550.44;5008102;28;20046;-69
2021/09/05 02:45:00;;;;;;;13.50;12.23;;;;;;;16.98;53.57;95520.75;5008236;28;20049;-70
2021/09/05 02:47:26;;;;;;;12.57;11.45;;;;;;;17.51;53.58;95592.34;5009053;28;20034;-70
2021/09/05 02:49:52;;;;;;;12.68;11.38;;;;;;;17.42;53.87;95586.28;5006638;28;20047;-69
2021/09/05 02:52:17;;;;;;;16.15;13.27;;;;;;;17.46;53.35;95595.25;5011323;28;20025;-69
2021/09/05 02:54:43;;;;;;;13.38;11.98;;;;;;;16.93;53.45;95512.91;5009306;28;20030;-70
2021/09/05 02:57:08;;;;;;;15.75;13.90;;;;;;;17.02;53.40;95535.88;4991940;28;20132;-69
2021/09/05 02:59:34;;;;;;;13.00;11.70;;;;;;;17.40;53.64;95578.56;5008503;28;20133;-69
2021/09/05 03:01:59;;;;;;;11.98;10.60;;;;;;;17.24;53.68;95558.84;5008958;28;20076;-70
2021/09/05 03:04:25;;;;;;;13.00;11.77;;;;;;;16.83;53.74;95495.31;5010577;28;20033;-69
2021/09/05 03:06:51;;;;;;;12.55;11.07;;;;;;;17.05;53.57;95529.06;5008923;28;20133;-69
2021/09/05 03:09:16;;;;;;;13.45;12.15;;;;;;;17.06;53.75;95527.94;5008896;28;20034;-69
2021/09/05 03:11:42;;;;;;;16.58;11.07;;;;;;;16.81;53.77;95487.59;5008895;28;20057;-69
2021/09/05 03:14:07;;;;;;;14.10;10.70;;;;;;;16.92;53.74;95509.44;5008815;28;20034;-69
2021/09/05 03:16:32;;;;;;;13.10;11.70;;;;;;;16.98;53.69;95521.53;5010973;28;20026;-69
2021/09/05 03:18:58;;;;;;;14.40;10.50;;;;;;;17.34;53.82;95584.50;5008634;28;20376;-69
2021/09/05 03:21:23;;;;;;;15.20;13.65;;;;;;;17.09;53.75;95560.28;4991180;28;20033;-69
2021/09/05 03:23:48;;;;;;;14.35;12.30;;;;;;;17.36;53.84;95596.50;5007950;28;20030;-70
2021/09/05 03:26:14;;;;;;;17.95;14.40;;;;;;;17.15;53.56;95575.09;5008853;28;20042;-70
2021/09/05 03:28:39;;;;;;;15.77;13.82;;;;;;;17.15;53.77;95583.16;5007832;28;20076;-69
2021/09/05 03:31:05;;;;;;;12.32;11.23;;;;;;;16.82;53.82;95531.38;5010812;28;20506;-69
2021/09/05 03:33:30;;;;;;;13.77;12.40;;;;;;;17.21;53.60;95591.00;5013316;28;20045;-70
2021/09/05 03:35:55;;;;;;;12.05;10.85;;;;;;;17.06;53.86;95574.41;5014675;28;20037;-83
2021/09/05 03:38:21;;;;;;;20.42;14.82;;;;;;;17.23;53.92;95600.28;4998592;28;20034;-76
2021/09/05 03:40:46;;;;;;;16.33;14.10;;;;;;;17.24;53.68;95612.59;5015979;28;20529;-76
2021/09/05 03:43:11;;;;;;;17.45;13.88;;;;;;;17.17;53.90;95598.16;5000967;28;20026;-77
2021/09/05 03:45:37;;;;;;;14.70;12.57;;;;;;;17.16;53.79;95597.38;5016350;28;20125;-76
2021/09/05 03:48:02;;;;;;;15.20;13.43;;;;;;;17.04;54.08;95578.53;4998601;28;20079;-76
2021/09/05 03:50:28;;;;;;;13.27;11.85;;;;;;;17.12;54.17;95602.63;5015282;28;20609;-77
2021/09/05 03:52:53;;;;;;;13.15;11.88;;;;;;;17.06;53.90;95589.75;4998848;28;20033;-77
2021/09/05 03:55:18;;;;;;;13.50;11.75;;;;;;;17.23;53.98;95621.00;5018227;28;20029;-76
2021/09/05 03:57:44;;;;;;;13.75;12.35;;;;;;;16.89;53.97;95571.91;5015993;28;20030;-76
2021/09/05 04:00:10;;;;;;;16.05;14.07;;;;;;;17.12;54.07;95599.94;5015775;28;20377;-76
2021/09/05 04:02:35;;;;;;;16.75;15.02;;;;;;;17.21;53.83;95607.13;4998425;28;20056;-75
2021/09/05 04:05:00;;;;;;;21.27;16.33;;;;;;;17.08;53.85;95596.34;4997819;28;20045;-76
2021/09/05 04:07:26;;;;;;;15.90;14.27;;;;;;;16.94;53.84;95578.97;5000203;28;20032;-76
2021/09/05 04:10:09;;;;;;;17.13;13.95;;;;;;;17.08;54.04;95598.25;4998056;28;20038;-76
2021/09/05 04:12:37;;;;;;;24.42;15.95;;;;;;;17.12;54.33;95610.69;5015776;28;20038;-76
2021/09/05 04:15:03;;;;;;;19.80;15.55;;;;;;;16.99;54.33;95598.34;5015467;28;20048;-77
2021/09/05 04:17:28;;;;;;;22.25;16.17;;;;;;;16.97;54.34;95583.69;5015836;28;20042;-76
2021/09/05 04:19:54;;;;;;;16.65;14.05;;;;;;;16.83;54.26;95570.53;5014830;28;20406;-77
2021/09/05 04:22:19;;;;;;;17.85;15.95;;;;;;;17.08;54.64;95609.78;5000315;28;20026;-76
2021/09/05 04:24:44;;;;;;;15.50;13.90;;;;;;;17.11;54.39;95622.56;5015826;28;20041;-78
2021/09/05 04:27:10;;;;;;;14.48;13.07;;;;;;;17.08;54.62;95617.06;5015807;28;20768;-75
2021/09/05 04:29:35;;;;;;;16.65;13.80;;;;;;;16.89;54.84;95585.34;5015264;28;20037;-77
2021/09/05 04:32:00;;;;;;;18.80;15.35;;;;;;;16.96;55.03;95599.03;5015677;28;20497;-77
2021/09/05 04:34:26;;;;;;;15.93;13.13;;;;;;;17.09;54.42;95619.41;4999476;28;20475;-76
2021/09/05 04:36:51;;;;;;;21.48;17.65;;;;;;;17.18;54.48;95629.28;5015519;28;20045;-77
2021/09/05 04:39:16;;;;;;;19.08;15.45;;;;;;;16.99;54.40;95601.03;4997672;28;20041;-75
2021/09/05 04:41:42;;;;;;;15.82;14.32;;;;;;;17.15;54.67;95622.69;5015725;28;20472;-76
2021/09/05 04:44:07;;;;;;;23.95;17.35;;;;;;;17.11;54.39;95619.09;5013729;28;20446;-76
2021/09/05 04:46:32;;;;;;;18.42;16.08;;;;;;;17.19;54.46;95633.53;5014867;28;20049;-76
2021/09/05 04:48:58;;;;;;;14.70;13.07;;;;;;;17.20;54.38;95637.78;5012097;28;20442;-77
2021/09/05 04:51:23;;;;;;;14.88;13.38;;;;;;;17.14;54.46;95621.88;5011932;28;20034;-76
2021/09/05 04:53:48;;;;;;;15.00;13.40;;;;;;;16.74;54.70;95565.28;5012735;28;20049;-77
2021/09/05 04:56:14;;;;;;;14.55;13.05;;;;;;;17.39;54.47;95652.28;4995144;28;20484;-76
2021/09/05 04:58:41;;;;;;;12.75;11.43;;;;;;;17.47;53.99;95653.31;5011806;28;20458;-76
2021/09/05 05:01:06;;;;;;;14.63;13.23;;;;;;;17.43;54.31;95649.72;5014771;28;20076;-76
2021/09/05 05:03:31;;;;;;;13.32;12.13;;;;;;;17.28;53.46;95629.63;5012610;28;20034;-76
2021/09/05 05:05:56;;;;;;;13.73;12.52;;;;;;;17.40;54.07;95637.72;5012053;28;20030;-76
2021/09/05 05:08:22;;;;;;;16.20;14.07;;;;;;;17.55;54.02;95647.00;4994727;28;20042;-77
2021/09/05 05:10:47;;;;;;;15.93;13.50;;;;;;;17.59;53.44;95642.53;5011943;28;20022;-76
2021/09/05 05:13:12;;;;;;;14.43;13.07;;;;;;;17.49;54.09;95634.13;5014145;28;20049;-76
2021/09/05 05:15:38;;;;;;;14.18;12.70;;;;;;;17.59;54.00;95639.84;5012046;28;20038;-75
2021/09/05 05:18:03;;;;;;;15.15;13.02;;;;;;;17.67;54.02;95647.03;5012079;28;20034;-79
2021/09/05 05:20:29;;;;;;;13.93;12.30;;;;;;;17.60;54.10;95627.97;5010920;28;20072;-76
2021/09/05 05:22:55;;;;;;;15.50;12.48;;;;;;;17.74;53.76;95640.34;5012151;28;20025;-75
2021/09/05 05:25:21;;;;;;;13.45;12.02;;;;;;;17.86;53.73;95643.81;5013612;28;20117;-74
2021/09/05 05:27:46;;;;;;;14.10;12.73;;;;;;;18.08;53.36;95669.47;4993744;28;20120;-75
2021/09/05 05:30:12;;;;;;;13.80;12.40;;;;;;;18.25;53.38;95678.41;5011187;28;20042;-76
2021/09/05 05:32:38;;;;;;;14.20;12.80;;;;;;;18.22;53.47;95663.72;4994582;28;20049;-76
2021/09/05 05:35:04;;;;;;;13.60;12.40;;;;;;;18.30;53.12;95662.81;5011144;28;20049;-75
2021/09/05 05:37:29;;;;;;;13.50;12.18;;;;;;;18.51;53.15;95678.78;5013129;28;20018;-75
2021/09/05 05:39:54;;;;;;;11.07;10.07;;;;;;;18.36;53.19;95647.97;4993938;28;20041;-76
2021/09/05 05:42:20;;;;;;;13.02;11.73;;;;;;;18.48;53.17;95649.88;5011403;28;20404;-76
2021/09/05 05:44:45;;;;;;;12.52;11.48;;;;;;;18.67;53.13;95673.47;5011228;28;20502;-76
2021/09/05 05:47:10;;;;;;;13.73;12.23;;;;;;;18.83;53.13;95685.09;5011480;28;20040;-76
2021/09/05 05:49:38;;;;;;;13.15;11.85;;;;;;;18.80;53.21;95658.88;5010386;28;20034;-77
2021/09/05 05:52:05;;;;;;;11.50;10.55;;;;;;;18.92;53.08;95677.66;5013150;28;20030;-77
2021/09/05 05:54:30;;;;;;;12.20;11.20;;;;;;;19.09;53.06;95678.47;4993930;28;20046;-77
2021/09/05 05:56:55;;;;;;;14.70;11.45;;;;;;;19.18;52.98;95684.50;4993909;28;20447;-77
2021/09/05 05:59:21;;;;;;;13.57;10.75;;;;;;;19.21;52.94;95676.50;4993254;28;20518;-76
2021/09/05 06:01:46;;;;;;;10.85;9.95;;;;;;;19.27;52.89;95671.66;4993567;28;20489;-76
2021/09/05 06:04:11;;;;;;;10.85;9.95;;;;;;;19.41;52.94;95668.53;4995659;28;20038;-77
2021/09/05 06:06:39;;;;;;;10.00;9.20;;;;;;;19.40;52.70;95645.41;4993039;28;20030;-77
2021/09/05 06:09:04;;;;;;;11.88;10.68;;;;;;;19.71;52.74;95680.50;5010323;28;20114;-77
2021/09/05 06:11:29;;;;;;;10.65;9.57;;;;;;;19.83;52.55;95686.94;5011077;28;20060;-76
2021/09/05 06:13:55;;;;;;;9.88;8.95;;;;;;;19.73;52.50;95667.44;5010897;28;20062;-77
2021/09/05 06:16:20;;;;;;;9.55;8.55;;;;;;;19.95;52.45;95674.09;5012781;28;20117;-76
2021/09/05 06:18:46;;;;;;;10.10;9.10;;;;;;;20.09;52.19;95675.56;4993176;28;20045;-76
2021/09/05 06:21:12;;;;;;;9.60;8.60;;;;;;;20.34;52.12;95693.13;5010269;28;20044;-76
2021/09/05 06:23:37;;;;;;;9.70;8.80;;;;;;;20.22;52.00;95656.22;5010477;28;20565;-77
2021/09/05 06:26:02;;;;;;;9.93;8.93;;;;;;;20.34;51.93;95668.03;4992703;28;20083;-74
2021/09/05 06:28:28;;;;;;;9.43;8.57;;;;;;;20.58;51.92;95691.34;5012210;28;20018;-76
2021/09/05 06:30:53;;;;;;;10.07;9.18;;;;;;;20.64;51.67;95693.41;5010147;28;20038;-76
2021/09/05 06:33:19;;;;;;;9.15;8.40;;;;;;;20.14;51.26;95637.50;5010475;28;20037;-76
2021/09/05 06:35:44;;;;;;;9.13;8.27;;;;;;;20.45;51.98;95687.94;4992281;28;20095;-76
2021/09/05 06:38:09;;;;;;;8.55;7.85;;;;;;;20.73;51.41;95687.78;5010395;28;20037;-76
2021/09/05 06:40:35;;;;;;;8.63;7.93;;;;;;;20.81;51.03;95683.31;4994362;28;20038;-76
2021/09/05 06:43:00;;;;;;;9.70;7.82;;;;;;;21.07;50.99;95705.06;4992648;28;20436;-76
2021/09/05 06:45:26;;;;;;;8.50;7.80;;;;;;;21.04;50.94;95700.38;5009477;28;20030;-75
2021/09/05 06:47:51;;;;;;;9.27;8.48;;;;;;;20.87;50.99;95684.56;4992305;28;20038;-77
2021/09/05 06:50:16;;;;;;;8.70;7.78;;;;;;;21.16;50.70;95721.84;4991091;28;20107;-76
2021/09/05 06:52:42;;;;;;;11.85;8.85;;;;;;;21.36;50.25;95687.47;4992379;28;20032;-77
2021/09/05 06:55:09;;;;;;;8.40;7.70;;;;;;;21.13;50.36;95681.97;4994858;28;20021;-77
2021/09/05 06:57:34;;;;;;;7.93;7.07;;;;;;;21.54;49.68;95704.00;5010300;28;20129;-77
2021/09/05 06:59:59;;;;;;;7.90;7.25;;;;;;;21.26;50.63;95704.25;5009811;28;20173;-78
2021/09/05 07:02:25;;;;;;;7.55;6.95;;;;;;;21.73;49.79;95686.94;4992115;28;20050;-75
2021/09/05 07:04:51;;;;;;;8.20;7.50;;;;;;;20.48;52.09;95701.56;4991437;28;20029;-76
2021/09/05 07:07:16;;;;;;;8.07;7.38;;;;;;;20.68;51.49;95688.84;4993445;28;20069;-76
2021/09/05 07:09:41;;;;;;;8.30;7.53;;;;;;;21.40;50.20;95693.72;4991742;28;20042;-76
2021/09/05 07:12:07;;;;;;;8.48;7.72;;;;;;;20.97;51.08;95705.63;5009775;28;20053;-74
2021/09/05 07:14:32;;;;;;;7.47;6.88;;;;;;;20.94;51.77;95714.47;4992342;28;20129;-75
2021/09/05 07:16:58;;;;;;;7.72;7.13;;;;;;;20.83;51.28;95667.50;5009772;28;20032;-76
2021/09/05 07:19:23;;;;;;;8.40;7.65;;;;;;;21.86;49.52;95684.81;4993889;28;20053;-76
2021/09/05 07:21:48;;;;;;;7.78;7.07;;;;;;;21.78;49.68;95690.09;4990539;28;20089;-76
2021/09/05 07:24:14;;;;;;;8.20;7.60;;;;;;;21.50;49.71;95679.59;5009487;28;20491;-76
2021/09/05 07:26:40;;;;;;;7.40;6.80;;;;;;;21.82;49.80;95721.91;4991046;28;20135;-73
2021/09/05 07:29:06;;;;;;;8.68;7.82;;;;;;;20.90;51.05;95700.88;5008482;28;20062;-76
2021/09/05 07:31:31;;;;;;;7.82;7.10;;;;;;;21.32;50.26;95670.38;4993915;28;20057;-77
2021/09/05 07:33:58;;;;;;;7.88;7.07;;;;;;;21.53;49.61;95705.16;4975262;28;20038;-75
2021/09/05 07:36:24;;;;;;;7.97;7.28;;;;;;;21.74;49.46;95719.06;4990809;28;20052;-75
2021/09/05 07:38:49;;;;;;;9.55;7.72;;;;;;;21.98;49.40;95709.00;5008278;28;20394;-75
2021/09/05 07:41:15;;;;;;;7.88;7.28;;;;;;;21.22;50.99;95701.47;4990963;28;20041;-74
2021/09/05 07:43:41;;;;;;;7.47;6.78;;;;;;;22.22;48.57;95716.75;4991513;28;20062;-75
2021/09/05 07:46:07;;;;;;;7.72;7.10;;;;;;;22.17;48.79;95740.69;4993405;28;20069;-74
2021/09/05 07:48:32;;;;;;;7.85;7.15;;;;;;;22.15;49.48;95730.19;4991538;28;20623;-75
2021/09/05 07:50:57;;;;;;;7.60;6.90;;;;;;;22.37;48.96;95735.91;5008623;28;20040;-67
2021/09/05 07:53:23;;;;;;;7.28;6.78;;;;;;;22.38;48.60;95732.09;5008578;28;20088;-69
2021/09/05 07:55:48;;;;;;;7.47;6.80;;;;;;;23.18;47.22;95738.94;5008757;28;20079;-68
2021/09/05 07:58:14;;;;;;;7.90;7.18;;;;;;;23.44;46.84;95737.28;5010621;28;20022;-69
2021/09/05 08:00:39;;;;;;;7.07;6.50;;;;;;;23.84;45.59;95744.69;5008613;28;20034;-68
2021/09/05 08:03:05;;;;;;;7.78;6.97;;;;;;;23.59;46.06;95734.34;5008816;28;20077;-67
2021/09/05 08:05:30;;;;;;;7.93;7.20;;;;;;;23.40;46.63;95736.50;5008169;28;20042;-67
2021/09/05 08:07:55;;;;;;;7.75;7.05;;;;;;;22.71;47.30;95744.94;5008146;28;20488;-67
2021/09/05 08:10:22;;;;;;;7.88;7.18;;;;;;;23.66;45.24;95749.97;5009796;28;20104;-68
2021/09/05 08:12:47;;;;;;;8.60;7.78;;;;;;;24.07;44.81;95741.81;4990817;28;20495;-67
2021/09/05 08:15:13;;;;;;;11.10;7.57;;;;;;;24.19;44.40;95743.44;5008312;28;20093;-67
2021/09/05 08:17:38;;;;;;;7.07;6.45;;;;;;;24.42;43.68;95743.25;5008315;28;20484;-67
2021/09/05 08:20:04;;;;;;;7.28;6.57;;;;;;;24.57;42.77;95747.63;5009440;28;20117;-69
2021/09/05 08:22:30;;;;;;;6.55;6.05;;;;;;;24.63;42.94;95757.00;5013485;28;20018;-67
2021/09/05 08:24:55;;;;;;;7.55;6.85;;;;;;;23.91;43.87;95752.16;5011915;28;20045;-69
2021/09/05 08:27:20;;;;;;;7.75;7.15;;;;;;;24.44;43.32;95754.53;5011666;28;20041;-68
2021/09/05 08:29:46;;;;;;;7.55;6.95;;;;;;;24.33;42.76;95754.44;5011368;28;20049;-68
2021/09/05 08:32:11;;;;;;;7.15;6.63;;;;;;;24.48;42.76;95749.91;5011931;28;20030;-69
2021/09/05 08:34:37;;;;;;;7.05;6.53;;;;;;;24.73;42.21;95755.50;5010207;28;20306;-64
2021/09/05 08:37:05;;;;;;;7.57;6.95;;;;;;;24.96;41.50;95749.78;5012616;28;20029;-68
2021/09/05 08:39:31;;;;;;;7.20;6.50;;;;;;;25.18;41.42;95759.59;5010977;28;20124;-67
2021/09/05 08:41:57;;;;;;;7.43;6.93;;;;;;;25.27;41.52;95754.59;4993947;28;20133;-68
2021/09/05 08:44:23;;;;;;;7.55;6.85;;;;;;;25.25;41.33;95767.81;5011413;28;20041;-68
2021/09/05 08:46:52;;;;;;;8.73;6.97;;;;;;;25.25;40.56;95750.69;4993793;28;20075;-68
2021/09/05 08:49:18;;;;;;;7.90;7.10;;;;;;;24.45;42.12;95758.81;5012598;28;20022;-68
2021/09/05 08:51:44;;;;;;;7.43;6.82;;;;;;;25.08;41.00;95752.19;5010905;28;20081;-68
2021/09/05 08:54:09;;;;;;;8.38;6.95;;;;;;;25.09;41.16;95754.53;5010915;28;20042;-68
2021/09/05 08:56:35;;;;;;;7.40;6.80;;;;;;;25.36;39.83;95757.72;5011152;28;20026;-68
2021/09/05 08:59:00;;;;;;;7.88;7.18;;;;;;;25.51;40.17;95755.84;5010792;28;20030;-68
2021/09/05 09:01:29;;;;;;;9.25;8.35;;;;;;;24.82;40.80;95756.69;5013206;28;20022;-68
2021/09/05 09:04:12;;;;;;;8.38;7.68;;;;;;;25.15;40.49;95763.09;5011544;28;20132;-68
2021/09/05 09:06:40;;;;;;;7.93;7.22;;;;;;;25.21;41.18;95764.28;5010542;28;20041;-68
2021/09/05 09:09:06;;;;;;;8.55;7.95;;;;;;;25.28;40.77;95763.53;5010470;28;20116;-68
2021/09/05 09:11:52;;;;;;;7.57;6.88;;;;;;;25.73;39.99;95762.09;5011097;28;20061;-68
2021/09/05 09:14:21;;;;;;;7.25;6.65;;;;;;;25.84;39.96;95746.56;5011328;28;20057;-68
2021/09/05 09:16:46;;;;;;;6.90;6.22;;;;;;;25.87;38.52;95751.25;5010964;28;20033;-68
2021/09/05 09:19:23;;;;;;;9.68;7.80;;;;;;;24.97;39.89;95757.53;5012422;28;20056;-68
2021/09/05 09:21:49;;;;;;;7.20;6.60;;;;;;;25.40;38.49;95755.81;5010591;28;20068;-68
2021/09/05 09:24:18;;;;;;;7.70;6.63;;;;;;;25.98;38.80;95750.50;5010990;28;20065;-68
2021/09/05 09:27:04;;;;;;;8.55;7.15;;;;;;;26.21;38.21;95752.81;5011245;28;20483;-68
2021/09/05 09:29:30;;;;;;;7.43;6.80;;;;;;;26.22;38.48;95751.66;4992984;28;20134;-67
2021/09/05 09:32:05;;;;;;;7.28;6.72;;;;;;;26.17;38.69;95747.38;5011049;28;20042;-68
2021/09/05 09:34:40;;;;;;;8.35;7.65;;;;;;;25.94;38.35;95761.38;5013314;28;20116;-68
2021/09/05 09:37:11;;;;;;;8.18;7.47;;;;;;;26.19;38.20;95751.25;5009881;28;20069;-67
2021/09/05 09:39:52;;;;;;;8.43;7.38;;;;;;;26.38;37.47;95752.81;5009989;28;20407;-68
2021/09/05 09:42:39;;;;;;;7.80;7.10;;;;;;;26.61;38.14;95755.16;4992987;28;20092;-68
2021/09/05 09:45:14;;;;;;;7.35;6.75;;;;;;;26.81;37.44;95757.44;4993145;28;20037;-68
2021/09/05 09:47:48;;;;;;;7.32;6.72;;;;;;;26.40;37.83;95752.41;5010377;28;20037;-68
2021/09/05 09:50:16;;;;;;;8.27;7.47;;;;;;;26.26;37.20;95753.22;5010140;28;20041;-68
2021/09/05 09:52:45;;;;;;;9.98;7.10;;;;;;;26.55;37.23;95754.00;5010281;28;20026;-67
2021/09/05 09:55:11;;;;;;;7.03;6.43;;;;;;;26.88;36.73;95747.31;5012241;28;20014;-68
2021/09/05 09:57:37;;;;;;;7.38;6.68;;;;;;;26.70;36.58;95749.28;5010104;28;20066;-67
2021/09/05 10:00:07;;;;;;;7.30;6.70;;;;;;;27.08;36.40;95750.38;5009772;28;20065;-68
2021/09/05 10:02:37;;;;;;;7.65;7.05;;;;;;;27.08;35.70;95744.94;5010034;28;20034;-68
2021/09/05 10:05:03;;;;;;;6.82;6.22;;;;;;;27.37;35.75;95751.03;5010006;28;20045;-67
2021/09/05 10:07:32;;;;;;;6.82;6.03;;;;;;;27.22;35.67;95752.25;4993635;28;20049;-67
2021/09/05 10:10:01;;;;;;;6.90;6.25;;;;;;;27.27;36.17;95748.34;5009416;28;20093;-68
2021/09/05 10:12:27;;;;;;;6.88;6.28;;;;;;;27.32;36.23;95750.66;5010173;28;20070;-68
2021/09/05 10:14:55;;;;;;;6.50;6.00;;;;;;;27.32;35.25;95754.16;5010032;28;20096;-68
2021/09/05 10:17:22;;;;;;;6.65;6.05;;;;;;;27.10;36.00;95752.72;5009681;28;20042;-68
2021/09/05 10:19:49;;;;;;;6.15;5.65;;;;;;;27.00;35.29;95740.63;5009665;28;20114;-68
2021/09/05 10:22:17;;;;;;;6.40;5.90;;;;;;;27.09;36.10;95751.16;5011153;28;20384;-67
2021/09/05 10:24:46;;;;;;;6.22;5.72;;;;;;;27.31;35.78;95747.16;5009698;28;20049;-68
2021/09/05 10:27:11;;;;;;;6.25;5.82;;;;;;;27.35;35.29;95738.94;5009372;28;20507;-68
2021/09/05 10:29:37;;;;;;;7.10;5.90;;;;;;;27.51;35.70;95727.56;4991286;28;20042;-68
2021/09/05 10:32:03;;;;;;;5.95;5.55;;;;;;;27.34;35.23;95735.44;5009441;28;20033;-68
2021/09/05 10:34:37;;;;;;;6.70;6.20;;;;;;;27.55;36.34;95733.78;5011492;28;20121;-68
2021/09/05 10:37:09;;;;;;;6.75;6.18;;;;;;;27.92;34.82;95738.63;4991643;28;20050;-68
2021/09/05 10:39:34;;;;;;;6.50;5.93;;;;;;;28.09;34.65;95739.66;5001343;28;20037;-68
2021/09/05 10:42:00;;;;;;;6.55;6.05;;;;;;;27.73;35.09;95745.38;5008942;28;20037;-68
2021/09/05 10:44:25;;;;;;;6.63;5.55;;;;;;;27.83;34.78;95733.59;5008842;28;20357;-68
2021/09/05 10:46:52;;;;;;;5.65;5.15;;;;;;;28.08;34.62;95733.41;5009219;28;20177;-68
2021/09/05 10:49:36;;;;;;;6.70;5.97;;;;;;;28.19;34.22;95736.06;5010864;28;20022;-68
2021/09/05 10:52:02;;;;;;;7.40;6.35;;;;;;;27.97;34.22;95733.50;5009211;28;20128;-68
2021/09/05 10:54:28;;;;;;;6.03;5.50;;;;;;;28.30;34.21;95739.47;5008990;28;20046;-68
2021/09/05 10:56:55;;;;;;;6.20;5.63;;;;;;;28.42;33.85;95728.09;5009382;28;20121;-68
2021/09/05 10:59:22;;;;;;;5.78;5.28;;;;;;;28.13;34.50;95729.47;5008792;28;20117;-68
2021/09/05 11:01:48;;;;;;;6.40;5.88;;;;;;;27.86;35.29;95734.78;5009190;28;20054;-69
2021/09/05 11:04:14;;;;;;;5.82;5.43;;;;;;;28.14;34.66;95731.81;5011085;28;20678;-68
2021/09/05 11:06:53;;;;;;;6.55;5.90;;;;;;;27.39;35.58;95732.28;5008168;28;20063;-68
2021/09/05 11:09:18;;;;;;;6.75;6.15;;;;;;;27.03;36.82;95741.81;5008365;28;20081;-69
2021/09/05 11:12:10;;;;;;;6.88;6.32;;;;;;;27.16;36.61;95732.78;5009271;28;20069;-68
2021/09/05 11:14:36;;;;;;;6.07;5.57;;;;;;;27.28;36.30;95737.03;4991761;28;20038;-68
2021/09/05 11:17:02;;;;;;;5.75;5.25;;;;;;;27.53;36.72;95731.41;5009177;28;20487;-72
2021/09/05 11:19:28;;;;;;;5.50;5.00;;;;;;;27.67;36.09;95734.06;4993486;28;20608;-68
2021/09/05 11:21:54;;;;;;;6.03;5.63;;;;;;;28.05;35.00;95733.44;4990923;28;20041;-68
2021/09/05 11:24:19;;;;;;;5.68;5.28;;;;;;;28.08;34.05;95732.66;5009197;28;20049;-69